sensor_id;sensor_type;location;lat;lon;timestamp;temperature;humidity
420;DHT22;42600;54.408;13.016;2023-03-04T00:00:48;3.60;92.70
420;DHT22;42600;54.408;13.016;2023-03-04T00:03:15;3.50;92.70
420;DHT22;42600;54.408;13.016;2023-03-04T00:05:42;3.50;92.70
420;DHT22;42600;54.408;13.016;2023-03-04T00:08:08;3.50;92.70
420;DHT22;42600;54.408;13.016;2023-03-04T00:10:35;3.60;92.70
420;DHT22;42600;54.408;13.016;2023-03-04T00:13:01;3.60;92.70
420;DHT22;42600;54.408;13.016;2023-03-04T00:15:28;3.50;92.70
420;DHT22;42600;54.408;13.016;2023-03-04T00:17:56;3.60;92.70
420;DHT22;42600;54.408;13.016;2023-03-04T00:20:22;3.60;92.70
420;DHT22;42600;54.408;13.016;2023-03-04T00:22:49;3.50;92.70
420;DHT22;42600;54.408;13.016;2023-03-04T00:25:16;3.50;92.70
420;DHT22;42600;54.408;13.016;2023-03-04T00:27:42;3.50;92.70
420;DHT22;42600;54.408;13.016;2023-03-04T00:30:10;3.50;92.70
420;DHT22;42600;54.408;13.016;2023-03-04T00:32:37;3.50;92.70
420;DHT22;42600;54.408;13.016;2023-03-04T00:35:06;3.50;92.70
420;DHT22;42600;54.408;13.016;2023-03-04T00:37:32;3.50;92.70
420;DHT22;42600;54.408;13.016;2023-03-04T00:39:59;3.50;92.70
420;DHT22;42600;54.408;13.016;2023-03-04T00:42:25;3.50;92.70
420;DHT22;42600;54.408;13.016;2023-03-04T00:44:52;3.50;92.70
420;DHT22;42600;54.408;13.016;2023-03-04T00:47:18;3.50;92.70
420;DHT22;42600;54.408;13.016;2023-03-04T00:49:45;3.50;92.70
420;DHT22;42600;54.408;13.016;2023-03-04T00:52:13;3.50;92.70
420;DHT22;42600;54.408;13.016;2023-03-04T00:54:40;3.50;92.70
420;DHT22;42600;54.408;13.016;2023-03-04T00:57:06;3.50;92.70
420;DHT22;42600;54.408;13.016;2023-03-04T00:59:33;3.50;92.70
420;DHT22;42600;54.408;13.016;2023-03-04T01:02:00;3.50;92.70
420;DHT22;42600;54.408;13.016;2023-03-04T01:04:26;3.50;92.70
420;DHT22;42600;54.408;13.016;2023-03-04T01:06:53;3.50;92.70
420;DHT22;42600;54.408;13.016;2023-03-04T01:09:21;3.50;92.70
420;DHT22;42600;54.408;13.016;2023-03-04T01:11:48;3.50;92.70
420;DHT22;42600;54.408;13.016;2023-03-04T01:14:14;3.40;92.70
420;DHT22;42600;54.408;13.016;2023-03-04T01:16:41;3.40;92.70
420;DHT22;42600;54.408;13.016;2023-03-04T01:19:07;3.40;92.70
420;DHT22;42600;54.408;13.016;2023-03-04T01:21:34;3.50;92.70
420;DHT22;42600;54.408;13.016;2023-03-04T01:24:00;3.50;92.70
420;DHT22;42600;54.408;13.016;2023-03-04T01:26:28;3.40;92.70
420;DHT22;42600;54.408;13.016;2023-03-04T01:28:55;3.40;92.70
420;DHT22;42600;54.408;13.016;2023-03-04T01:31:22;3.40;92.70
420;DHT22;42600;54.408;13.016;2023-03-04T01:33:48;3.40;92.70
420;DHT22;42600;54.408;13.016;2023-03-04T01:36:15;3.40;92.70
420;DHT22;42600;54.408;13.016;2023-03-04T01:38:41;3.40;92.70
420;DHT22;42600;54.408;13.016;2023-03-04T01:41:09;3.40;92.70
420;DHT22;42600;54.408;13.016;2023-03-04T01:43:38;3.40;92.70
420;DHT22;42600;54.408;13.016;2023-03-04T01:46:05;3.50;92.70
420;DHT22;42600;54.408;13.016;2023-03-04T01:48:34;3.50;92.70
420;DHT22;42600;54.408;13.016;2023-03-04T01:51:02;3.50;92.70
420;DHT22;42600;54.408;13.016;2023-03-04T01:53:30;3.50;92.70
420;DHT22;42600;54.408;13.016;2023-03-04T01:56:00;3.50;92.70
420;DHT22;42600;54.408;13.016;2023-03-04T01:58:31;3.50;92.70
420;DHT22;42600;54.408;13.016;2023-03-04T02:00:58;3.50;92.70
420;DHT22;42600;54.408;13.016;2023-03-04T02:03:25;3.50;92.70
420;DHT22;42600;54.408;13.016;2023-03-04T02:05:52;3.50;92.70
420;DHT22;42600;54.408;13.016;2023-03-04T02:08:21;3.50;92.70
420;DHT22;42600;54.408;13.016;2023-03-04T02:10:49;3.50;92.70
420;DHT22;42600;54.408;13.016;2023-03-04T02:13:16;3.50;92.70
420;DHT22;42600;54.408;13.016;2023-03-04T02:15:44;3.50;92.70
420;DHT22;42600;54.408;13.016;2023-03-04T02:18:16;3.50;92.70
420;DHT22;42600;54.408;13.016;2023-03-04T02:20:50;3.50;92.70
420;DHT22;42600;54.408;13.016;2023-03-04T02:23:24;3.50;92.70
420;DHT22;42600;54.408;13.016;2023-03-04T02:26:06;3.50;92.70
420;DHT22;42600;54.408;13.016;2023-03-04T02:28:33;3.50;92.70
420;DHT22;42600;54.408;13.016;2023-03-04T02:31:00;3.50;92.70
420;DHT22;42600;54.408;13.016;2023-03-04T02:33:27;3.50;92.70
420;DHT22;42600;54.408;13.016;2023-03-04T02:35:53;3.50;92.70
420;DHT22;42600;54.408;13.016;2023-03-04T02:38:20;3.50;92.70
420;DHT22;42600;54.408;13.016;2023-03-04T02:40:50;3.50;92.70
420;DHT22;42600;54.408;13.016;2023-03-04T02:43:18;3.50;92.70
420;DHT22;42600;54.408;13.016;2023-03-04T02:45:46;3.50;92.70
420;DHT22;42600;54.408;13.016;2023-03-04T02:48:15;3.50;92.70
420;DHT22;42600;54.408;13.016;2023-03-04T02:50:46;3.50;92.70
420;DHT22;42600;54.408;13.016;2023-03-04T02:53:13;3.50;92.70
420;DHT22;42600;54.408;13.016;2023-03-04T02:55:39;3.50;92.70
420;DHT22;42600;54.408;13.016;2023-03-04T02:58:06;3.50;92.70
420;DHT22;42600;54.408;13.016;2023-03-04T03:00:34;3.50;92.70
420;DHT22;42600;54.408;13.016;2023-03-04T03:03:01;3.50;92.70
420;DHT22;42600;54.408;13.016;2023-03-04T03:05:31;3.50;92.70
420;DHT22;42600;54.408;13.016;2023-03-04T03:07:58;3.50;92.70
420;DHT22;42600;54.408;13.016;2023-03-04T03:10:24;3.60;92.70
420;DHT22;42600;54.408;13.016;2023-03-04T03:12:51;3.60;92.70
420;DHT22;42600;54.408;13.016;2023-03-04T03:15:18;3.60;92.70
420;DHT22;42600;54.408;13.016;2023-03-04T03:17:47;3.60;92.70
420;DHT22;42600;54.408;13.016;2023-03-04T03:20:14;3.60;92.70
420;DHT22;42600;54.408;13.016;2023-03-04T03:22:41;3.70;92.70
420;DHT22;42600;54.408;13.016;2023-03-04T03:25:10;3.70;92.70
420;DHT22;42600;54.408;13.016;2023-03-04T03:27:37;3.70;92.70
420;DHT22;42600;54.408;13.016;2023-03-04T03:30:04;3.70;92.70
420;DHT22;42600;54.408;13.016;2023-03-04T03:32:31;3.80;92.70
420;DHT22;42600;54.408;13.016;2023-03-04T03:35:00;3.80;92.70
420;DHT22;42600;54.408;13.016;2023-03-04T03:37:27;3.80;92.70
420;DHT22;42600;54.408;13.016;2023-03-04T03:39:53;3.80;92.70
420;DHT22;42600;54.408;13.016;2023-03-04T03:42:20;3.80;92.70
420;DHT22;42600;54.408;13.016;2023-03-04T03:44:46;3.80;92.70
420;DHT22;42600;54.408;13.016;2023-03-04T03:47:14;3.90;92.70
420;DHT22;42600;54.408;13.016;2023-03-04T03:49:41;3.90;92.70
420;DHT22;42600;54.408;13.016;2023-03-04T03:52:09;3.90;92.70
420;DHT22;42600;54.408;13.016;2023-03-04T03:54:35;3.90;92.70
420;DHT22;42600;54.408;13.016;2023-03-04T03:57:02;3.90;92.70
420;DHT22;42600;54.408;13.016;2023-03-04T03:59:29;3.90;92.70
420;DHT22;42600;54.408;13.016;2023-03-04T04:01:55;3.90;92.70
420;DHT22;42600;54.408;13.016;2023-03-04T04:04:22;3.90;92.70
420;DHT22;42600;54.408;13.016;2023-03-04T04:06:48;4.00;92.70
420;DHT22;42600;54.408;13.016;2023-03-04T04:09:16;4.00;92.70
420;DHT22;42600;54.408;13.016;2023-03-04T04:11:43;4.00;92.70
420;DHT22;42600;54.408;13.016;2023-03-04T04:14:10;4.00;92.70
420;DHT22;42600;54.408;13.016;2023-03-04T04:16:38;4.00;92.70
420;DHT22;42600;54.408;13.016;2023-03-04T04:19:04;4.00;92.70
420;DHT22;42600;54.408;13.016;2023-03-04T04:21:31;4.00;92.70
420;DHT22;42600;54.408;13.016;2023-03-04T04:23:58;4.00;92.70
420;DHT22;42600;54.408;13.016;2023-03-04T04:26:26;4.00;92.70
420;DHT22;42600;54.408;13.016;2023-03-04T04:28:52;4.10;92.70
420;DHT22;42600;54.408;13.016;2023-03-04T04:31:19;4.10;92.70
420;DHT22;42600;54.408;13.016;2023-03-04T04:33:45;4.10;92.70
420;DHT22;42600;54.408;13.016;2023-03-04T04:36:12;4.10;92.70
420;DHT22;42600;54.408;13.016;2023-03-04T04:38:39;4.10;92.70
420;DHT22;42600;54.408;13.016;2023-03-04T04:41:15;4.10;92.70
420;DHT22;42600;54.408;13.016;2023-03-04T04:43:44;4.10;92.70
420;DHT22;42600;54.408;13.016;2023-03-04T04:46:12;4.10;92.70
420;DHT22;42600;54.408;13.016;2023-03-04T04:48:38;4.10;92.70
420;DHT22;42600;54.408;13.016;2023-03-04T04:51:05;4.20;92.70
420;DHT22;42600;54.408;13.016;2023-03-04T04:53:32;4.20;92.70
420;DHT22;42600;54.408;13.016;2023-03-04T04:55:59;4.20;92.70
420;DHT22;42600;54.408;13.016;2023-03-04T04:58:25;4.20;92.70
420;DHT22;42600;54.408;13.016;2023-03-04T05:00:56;4.20;92.70
420;DHT22;42600;54.408;13.016;2023-03-04T05:03:23;4.20;92.70
420;DHT22;42600;54.408;13.016;2023-03-04T05:05:49;4.20;92.70
420;DHT22;42600;54.408;13.016;2023-03-04T05:08:16;4.20;92.70
420;DHT22;42600;54.408;13.016;2023-03-04T05:10:42;4.20;92.70
420;DHT22;42600;54.408;13.016;2023-03-04T05:13:09;4.20;92.70
420;DHT22;42600;54.408;13.016;2023-03-04T05:15:36;4.20;92.70
420;DHT22;42600;54.408;13.016;2023-03-04T05:18:04;4.20;92.70
420;DHT22;42600;54.408;13.016;2023-03-04T05:20:31;4.20;92.70
420;DHT22;42600;54.408;13.016;2023-03-04T05:22:57;4.20;92.70
420;DHT22;42600;54.408;13.016;2023-03-04T05:25:24;4.20;92.70
420;DHT22;42600;54.408;13.016;2023-03-04T05:27:51;4.20;92.70
420;DHT22;42600;54.408;13.016;2023-03-04T05:30:17;4.20;92.70
420;DHT22;42600;54.408;13.016;2023-03-04T05:32:44;4.10;92.70
420;DHT22;42600;54.408;13.016;2023-03-04T05:35:12;4.10;92.70
420;DHT22;42600;54.408;13.016;2023-03-04T05:37:38;4.10;92.70
420;DHT22;42600;54.408;13.016;2023-03-04T05:40:06;4.00;92.70
420;DHT22;42600;54.408;13.016;2023-03-04T05:42:33;4.00;92.70
420;DHT22;42600;54.408;13.016;2023-03-04T05:45:00;4.00;92.70
420;DHT22;42600;54.408;13.016;2023-03-04T05:47:26;4.00;92.70
420;DHT22;42600;54.408;13.016;2023-03-04T05:49:53;3.90;92.70
420;DHT22;42600;54.408;13.016;2023-03-04T05:52:21;3.90;92.70
420;DHT22;42600;54.408;13.016;2023-03-04T05:54:47;3.90;92.70
420;DHT22;42600;54.408;13.016;2023-03-04T05:57:14;3.80;92.70
420;DHT22;42600;54.408;13.016;2023-03-04T05:59:40;3.80;92.70
420;DHT22;42600;54.408;13.016;2023-03-04T06:02:07;3.80;92.70
420;DHT22;42600;54.408;13.016;2023-03-04T06:04:34;3.80;92.70
420;DHT22;42600;54.408;13.016;2023-03-04T06:07:00;3.70;92.70
420;DHT22;42600;54.408;13.016;2023-03-04T06:09:28;3.70;92.70
420;DHT22;42600;54.408;13.016;2023-03-04T06:11:55;3.70;92.70
420;DHT22;42600;54.408;13.016;2023-03-04T06:14:21;3.70;92.70
420;DHT22;42600;54.408;13.016;2023-03-04T06:16:48;3.70;92.70
420;DHT22;42600;54.408;13.016;2023-03-04T06:19:14;3.70;92.70
420;DHT22;42600;54.408;13.016;2023-03-04T06:21:41;3.70;92.70
420;DHT22;42600;54.408;13.016;2023-03-04T06:24:08;3.70;92.70
420;DHT22;42600;54.408;13.016;2023-03-04T06:26:35;3.70;92.70
420;DHT22;42600;54.408;13.016;2023-03-04T06:29:03;3.70;92.70
420;DHT22;42600;54.408;13.016;2023-03-04T06:31:29;3.70;92.70
420;DHT22;42600;54.408;13.016;2023-03-04T06:33:56;3.70;92.70
420;DHT22;42600;54.408;13.016;2023-03-04T06:36:23;3.70;92.70
420;DHT22;42600;54.408;13.016;2023-03-04T06:38:49;3.70;92.70
420;DHT22;42600;54.408;13.016;2023-03-04T06:41:16;3.80;92.70
420;DHT22;42600;54.408;13.016;2023-03-04T06:43:44;3.80;92.70
420;DHT22;42600;54.408;13.016;2023-03-04T06:46:10;3.80;92.70
420;DHT22;42600;54.408;13.016;2023-03-04T06:48:37;3.80;92.70
420;DHT22;42600;54.408;13.016;2023-03-04T06:51:05;3.90;92.70
420;DHT22;42600;54.408;13.016;2023-03-04T06:53:32;3.90;92.70
420;DHT22;42600;54.408;13.016;2023-03-04T06:55:58;4.00;92.70
420;DHT22;42600;54.408;13.016;2023-03-04T06:58:25;4.00;92.70
420;DHT22;42600;54.408;13.016;2023-03-04T07:00:53;4.10;92.70
420;DHT22;42600;54.408;13.016;2023-03-04T07:03:19;4.20;92.70
420;DHT22;42600;54.408;13.016;2023-03-04T07:05:46;4.20;92.70
420;DHT22;42600;54.408;13.016;2023-03-04T07:08:12;4.30;92.70
420;DHT22;42600;54.408;13.016;2023-03-04T07:10:39;4.40;92.70
420;DHT22;42600;54.408;13.016;2023-03-04T07:13:06;4.40;92.70
420;DHT22;42600;54.408;13.016;2023-03-04T07:15:32;4.40;92.70
420;DHT22;42600;54.408;13.016;2023-03-04T07:18:01;4.50;92.70
420;DHT22;42600;54.408;13.016;2023-03-04T07:20:28;4.60;92.70
420;DHT22;42600;54.408;13.016;2023-03-04T07:22:54;4.60;92.70
420;DHT22;42600;54.408;13.016;2023-03-04T07:25:21;4.70;92.70
420;DHT22;42600;54.408;13.016;2023-03-04T07:27:48;4.70;92.70
420;DHT22;42600;54.408;13.016;2023-03-04T07:30:14;4.80;92.70
420;DHT22;42600;54.408;13.016;2023-03-04T07:32:41;4.90;92.70
420;DHT22;42600;54.408;13.016;2023-03-04T07:35:09;4.90;92.70
420;DHT22;42600;54.408;13.016;2023-03-04T07:37:36;5.00;92.70
420;DHT22;42600;54.408;13.016;2023-03-04T07:40:05;5.10;92.70
420;DHT22;42600;54.408;13.016;2023-03-04T07:42:32;5.10;92.70
420;DHT22;42600;54.408;13.016;2023-03-04T07:44:59;5.10;92.70
420;DHT22;42600;54.408;13.016;2023-03-04T07:47:27;5.20;92.70
420;DHT22;42600;54.408;13.016;2023-03-04T07:49:53;5.20;92.70
420;DHT22;42600;54.408;13.016;2023-03-04T07:52:21;5.20;92.70
420;DHT22;42600;54.408;13.016;2023-03-04T07:54:48;5.20;92.70
420;DHT22;42600;54.408;13.016;2023-03-04T07:57:15;5.20;92.70
420;DHT22;42600;54.408;13.016;2023-03-04T07:59:42;5.30;92.70
420;DHT22;42600;54.408;13.016;2023-03-04T08:02:09;5.30;92.70
420;DHT22;42600;54.408;13.016;2023-03-04T08:04:35;5.30;92.70
420;DHT22;42600;54.408;13.016;2023-03-04T08:07:02;5.30;92.70
420;DHT22;42600;54.408;13.016;2023-03-04T08:09:30;5.30;92.70
420;DHT22;42600;54.408;13.016;2023-03-04T08:11:57;5.30;92.70
420;DHT22;42600;54.408;13.016;2023-03-04T08:14:23;5.30;92.70
420;DHT22;42600;54.408;13.016;2023-03-04T08:16:50;5.30;92.70
420;DHT22;42600;54.408;13.016;2023-03-04T08:19:16;5.20;92.70
420;DHT22;42600;54.408;13.016;2023-03-04T08:21:43;5.20;92.70
420;DHT22;42600;54.408;13.016;2023-03-04T08:24:10;5.20;92.70
420;DHT22;42600;54.408;13.016;2023-03-04T08:26:40;5.20;92.70
420;DHT22;42600;54.408;13.016;2023-03-04T08:29:09;5.20;92.70
420;DHT22;42600;54.408;13.016;2023-03-04T08:31:35;5.30;92.70
420;DHT22;42600;54.408;13.016;2023-03-04T08:34:04;5.30;92.70
420;DHT22;42600;54.408;13.016;2023-03-04T08:36:30;5.30;92.70
420;DHT22;42600;54.408;13.016;2023-03-04T08:38:57;5.30;92.70
420;DHT22;42600;54.408;13.016;2023-03-04T08:41:23;5.30;92.70
420;DHT22;42600;54.408;13.016;2023-03-04T08:43:53;5.30;92.70
420;DHT22;42600;54.408;13.016;2023-03-04T08:46:19;5.30;92.70
420;DHT22;42600;54.408;13.016;2023-03-04T08:48:46;5.30;92.70
420;DHT22;42600;54.408;13.016;2023-03-04T08:51:14;5.30;92.70
420;DHT22;42600;54.408;13.016;2023-03-04T08:53:41;5.20;92.70
420;DHT22;42600;54.408;13.016;2023-03-04T08:56:09;5.30;92.70
420;DHT22;42600;54.408;13.016;2023-03-04T08:58:36;5.30;92.70
420;DHT22;42600;54.408;13.016;2023-03-04T09:01:06;5.30;92.70
420;DHT22;42600;54.408;13.016;2023-03-04T09:03:33;5.20;92.70
420;DHT22;42600;54.408;13.016;2023-03-04T09:06:00;5.20;92.70
420;DHT22;42600;54.408;13.016;2023-03-04T09:08:27;5.20;92.70
420;DHT22;42600;54.408;13.016;2023-03-04T09:10:54;5.20;92.70
420;DHT22;42600;54.408;13.016;2023-03-04T09:13:22;5.20;92.70
420;DHT22;42600;54.408;13.016;2023-03-04T09:15:50;5.20;92.70
420;DHT22;42600;54.408;13.016;2023-03-04T09:18:20;5.20;92.70
420;DHT22;42600;54.408;13.016;2023-03-04T09:20:47;5.10;92.70
420;DHT22;42600;54.408;13.016;2023-03-04T09:23:14;5.20;92.70
420;DHT22;42600;54.408;13.016;2023-03-04T09:25:41;5.00;92.70
420;DHT22;42600;54.408;13.016;2023-03-04T09:28:09;4.80;92.70
420;DHT22;42600;54.408;13.016;2023-03-04T09:30:37;4.70;92.70
420;DHT22;42600;54.408;13.016;2023-03-04T09:33:03;4.70;92.70
420;DHT22;42600;54.408;13.016;2023-03-04T09:35:31;4.70;92.70
420;DHT22;42600;54.408;13.016;2023-03-04T09:37:58;4.80;92.70
420;DHT22;42600;54.408;13.016;2023-03-04T09:40:27;4.80;92.70
420;DHT22;42600;54.408;13.016;2023-03-04T09:42:57;5.00;92.70
420;DHT22;42600;54.408;13.016;2023-03-04T09:45:30;5.10;92.70
420;DHT22;42600;54.408;13.016;2023-03-04T09:47:59;5.10;92.70
420;DHT22;42600;54.408;13.016;2023-03-04T09:50:28;5.20;92.70
420;DHT22;42600;54.408;13.016;2023-03-04T09:53:06;5.20;92.70
420;DHT22;42600;54.408;13.016;2023-03-04T09:55:37;5.30;92.70
420;DHT22;42600;54.408;13.016;2023-03-04T09:58:13;5.30;92.70
420;DHT22;42600;54.408;13.016;2023-03-04T10:00:44;5.40;92.70
420;DHT22;42600;54.408;13.016;2023-03-04T10:03:15;5.60;92.70
420;DHT22;42600;54.408;13.016;2023-03-04T10:05:48;5.60;92.70
420;DHT22;42600;54.408;13.016;2023-03-04T10:08:30;5.70;92.70
420;DHT22;42600;54.408;13.016;2023-03-04T10:10:58;5.60;92.70
420;DHT22;42600;54.408;13.016;2023-03-04T10:13:30;5.50;92.70
420;DHT22;42600;54.408;13.016;2023-03-04T10:16:02;5.60;92.70
420;DHT22;42600;54.408;13.016;2023-03-04T10:18:34;5.50;92.70
420;DHT22;42600;54.408;13.016;2023-03-04T10:21:07;5.50;92.70
420;DHT22;42600;54.408;13.016;2023-03-04T10:23:39;5.60;92.70
420;DHT22;42600;54.408;13.016;2023-03-04T10:26:12;5.40;92.70
420;DHT22;42600;54.408;13.016;2023-03-04T10:28:39;5.40;92.70
420;DHT22;42600;54.408;13.016;2023-03-04T10:31:11;5.50;92.70
420;DHT22;42600;54.408;13.016;2023-03-04T10:33:40;5.50;92.70
420;DHT22;42600;54.408;13.016;2023-03-04T10:36:26;5.60;92.70
420;DHT22;42600;54.408;13.016;2023-03-04T10:39:05;5.60;92.70
420;DHT22;42600;54.408;13.016;2023-03-04T10:41:33;5.60;92.70
420;DHT22;42600;54.408;13.016;2023-03-04T10:44:01;5.50;92.70
420;DHT22;42600;54.408;13.016;2023-03-04T10:46:29;5.60;92.70
420;DHT22;42600;54.408;13.016;2023-03-04T10:48:57;5.70;92.70
420;DHT22;42600;54.408;13.016;2023-03-04T10:51:25;5.70;92.70
420;DHT22;42600;54.408;13.016;2023-03-04T10:53:56;5.60;89.90
420;DHT22;42600;54.408;13.016;2023-03-04T10:56:34;5.60;85.20
420;DHT22;42600;54.408;13.016;2023-03-04T10:59:30;5.60;84.30
420;DHT22;42600;54.408;13.016;2023-03-04T11:01:57;5.60;82.10
420;DHT22;42600;54.408;13.016;2023-03-04T11:04:27;5.60;81.10
420;DHT22;42600;54.408;13.016;2023-03-04T11:06:57;5.60;81.40
420;DHT22;42600;54.408;13.016;2023-03-04T11:09:26;5.50;78.40
420;DHT22;42600;54.408;13.016;2023-03-04T11:11:57;5.40;76.10
420;DHT22;42600;54.408;13.016;2023-03-04T11:14:26;5.30;77.90
420;DHT22;42600;54.408;13.016;2023-03-04T11:16:56;5.40;80.70
420;DHT22;42600;54.408;13.016;2023-03-04T11:19:27;5.40;80.00
420;DHT22;42600;54.408;13.016;2023-03-04T11:21:55;5.50;81.90
420;DHT22;42600;54.408;13.016;2023-03-04T11:24:24;5.40;81.10
420;DHT22;42600;54.408;13.016;2023-03-04T11:26:56;5.50;82.40
420;DHT22;42600;54.408;13.016;2023-03-04T11:29:27;5.60;81.20
420;DHT22;42600;54.408;13.016;2023-03-04T11:31:57;5.50;79.10
420;DHT22;42600;54.408;13.016;2023-03-04T11:34:32;5.50;81.10
420;DHT22;42600;54.408;13.016;2023-03-04T11:37:05;5.50;81.20
420;DHT22;42600;54.408;13.016;2023-03-04T11:39:36;5.40;81.80
420;DHT22;42600;54.408;13.016;2023-03-04T11:42:12;5.40;82.60
420;DHT22;42600;54.408;13.016;2023-03-04T11:44:43;5.30;82.60
420;DHT22;42600;54.408;13.016;2023-03-04T11:47:41;5.30;82.00
420;DHT22;42600;54.408;13.016;2023-03-04T11:50:34;5.30;81.70
420;DHT22;42600;54.408;13.016;2023-03-04T11:56:14;5.30;82.30
420;DHT22;42600;54.408;13.016;2023-03-04T11:59:04;5.30;80.50
420;DHT22;42600;54.408;13.016;2023-03-04T12:01:40;5.30;81.30
420;DHT22;42600;54.408;13.016;2023-03-04T12:07:15;5.30;81.80
420;DHT22;42600;54.408;13.016;2023-03-04T12:09:53;5.30;81.70
420;DHT22;42600;54.408;13.016;2023-03-04T12:12:34;5.10;80.50
420;DHT22;42600;54.408;13.016;2023-03-04T12:15:15;5.10;80.60
420;DHT22;42600;54.408;13.016;2023-03-04T12:18:17;5.10;82.10
420;DHT22;42600;54.408;13.016;2023-03-04T12:21:00;5.20;82.10
420;DHT22;42600;54.408;13.016;2023-03-04T12:23:43;5.20;82.70
420;DHT22;42600;54.408;13.016;2023-03-04T12:26:23;5.10;81.80
420;DHT22;42600;54.408;13.016;2023-03-04T12:28:56;5.40;81.40
420;DHT22;42600;54.408;13.016;2023-03-04T12:31:33;5.30;80.70
420;DHT22;42600;54.408;13.016;2023-03-04T12:34:21;5.20;76.90
420;DHT22;42600;54.408;13.016;2023-03-04T12:36:56;5.30;78.20
420;DHT22;42600;54.408;13.016;2023-03-04T12:39:31;5.10;74.30
420;DHT22;42600;54.408;13.016;2023-03-04T12:42:07;5.20;76.50
420;DHT22;42600;54.408;13.016;2023-03-04T12:44:44;5.30;77.00
420;DHT22;42600;54.408;13.016;2023-03-04T12:47:19;5.10;71.90
420;DHT22;42600;54.408;13.016;2023-03-04T12:49:55;5.10;74.70
420;DHT22;42600;54.408;13.016;2023-03-04T12:52:36;5.30;76.90
420;DHT22;42600;54.408;13.016;2023-03-04T12:55:09;5.40;75.70
420;DHT22;42600;54.408;13.016;2023-03-04T12:57:38;5.60;75.90
420;DHT22;42600;54.408;13.016;2023-03-04T13:00:19;5.50;74.50
420;DHT22;42600;54.408;13.016;2023-03-04T13:03:03;5.50;70.00
420;DHT22;42600;54.408;13.016;2023-03-04T13:05:43;5.50;67.80
420;DHT22;42600;54.408;13.016;2023-03-04T13:08:23;5.40;67.40
420;DHT22;42600;54.408;13.016;2023-03-04T13:10:52;5.30;67.50
420;DHT22;42600;54.408;13.016;2023-03-04T13:13:38;5.30;67.20
420;DHT22;42600;54.408;13.016;2023-03-04T13:16:14;5.10;65.90
420;DHT22;42600;54.408;13.016;2023-03-04T13:18:53;5.00;66.40
420;DHT22;42600;54.408;13.016;2023-03-04T13:21:22;4.80;65.60
420;DHT22;42600;54.408;13.016;2023-03-04T13:23:50;4.80;68.30
420;DHT22;42600;54.408;13.016;2023-03-04T13:26:21;4.90;66.80
420;DHT22;42600;54.408;13.016;2023-03-04T13:28:53;4.80;66.90
420;DHT22;42600;54.408;13.016;2023-03-04T13:31:23;4.70;67.10
420;DHT22;42600;54.408;13.016;2023-03-04T13:34:09;4.70;68.30
420;DHT22;42600;54.408;13.016;2023-03-04T13:36:53;4.70;70.80
420;DHT22;42600;54.408;13.016;2023-03-04T13:39:34;4.80;71.30
420;DHT22;42600;54.408;13.016;2023-03-04T13:42:01;4.90;70.70
420;DHT22;42600;54.408;13.016;2023-03-04T13:44:55;4.90;70.30
420;DHT22;42600;54.408;13.016;2023-03-04T13:47:31;4.90;71.40
420;DHT22;42600;54.408;13.016;2023-03-04T13:50:29;5.00;71.20
420;DHT22;42600;54.408;13.016;2023-03-04T13:53:01;4.80;69.60
420;DHT22;42600;54.408;13.016;2023-03-04T13:56:02;4.60;70.00
420;DHT22;42600;54.408;13.016;2023-03-04T13:58:30;4.70;71.40
420;DHT22;42600;54.408;13.016;2023-03-04T14:00:56;4.70;71.50
420;DHT22;42600;54.408;13.016;2023-03-04T14:03:25;4.70;73.40
420;DHT22;42600;54.408;13.016;2023-03-04T14:06:10;4.80;72.40
420;DHT22;42600;54.408;13.016;2023-03-04T14:08:37;4.80;74.90
420;DHT22;42600;54.408;13.016;2023-03-04T14:11:04;4.80;73.20
420;DHT22;42600;54.408;13.016;2023-03-04T14:13:31;4.70;73.00
420;DHT22;42600;54.408;13.016;2023-03-04T14:15:58;4.60;71.70
420;DHT22;42600;54.408;13.016;2023-03-04T14:18:25;4.70;74.30
420;DHT22;42600;54.408;13.016;2023-03-04T14:20:52;4.70;75.00
420;DHT22;42600;54.408;13.016;2023-03-04T14:23:27;4.70;74.70
420;DHT22;42600;54.408;13.016;2023-03-04T14:26:09;4.90;75.80
420;DHT22;42600;54.408;13.016;2023-03-04T14:28:44;5.10;76.90
420;DHT22;42600;54.408;13.016;2023-03-04T14:31:15;5.00;76.00
420;DHT22;42600;54.408;13.016;2023-03-04T14:33:45;4.90;75.60
420;DHT22;42600;54.408;13.016;2023-03-04T14:36:16;4.90;75.60
420;DHT22;42600;54.408;13.016;2023-03-04T14:38:50;4.80;75.30
420;DHT22;42600;54.408;13.016;2023-03-04T14:41:19;5.10;77.00
420;DHT22;42600;54.408;13.016;2023-03-04T14:43:51;5.00;76.60
420;DHT22;42600;54.408;13.016;2023-03-04T14:46:20;5.00;79.20
420;DHT22;42600;54.408;13.016;2023-03-04T14:48:49;5.10;78.20
420;DHT22;42600;54.408;13.016;2023-03-04T14:51:29;5.20;81.50
420;DHT22;42600;54.408;13.016;2023-03-04T14:53:57;5.20;79.60
420;DHT22;42600;54.408;13.016;2023-03-04T14:56:27;5.10;78.40
420;DHT22;42600;54.408;13.016;2023-03-04T14:58:55;5.20;81.30
420;DHT22;42600;54.408;13.016;2023-03-04T15:01:30;5.40;85.90
420;DHT22;42600;54.408;13.016;2023-03-04T15:03:59;5.50;81.00
420;DHT22;42600;54.408;13.016;2023-03-04T15:06:28;5.60;85.30
420;DHT22;42600;54.408;13.016;2023-03-04T15:08:58;5.60;83.70
420;DHT22;42600;54.408;13.016;2023-03-04T15:11:28;5.90;85.20
420;DHT22;42600;54.408;13.016;2023-03-04T15:13:57;6.00;84.80
420;DHT22;42600;54.408;13.016;2023-03-04T15:16:25;6.30;83.00
420;DHT22;42600;54.408;13.016;2023-03-04T15:18:53;6.10;80.60
420;DHT22;42600;54.408;13.016;2023-03-04T15:21:35;6.00;83.00
420;DHT22;42600;54.408;13.016;2023-03-04T15:24:05;6.00;83.70
420;DHT22;42600;54.408;13.016;2023-03-04T15:26:37;6.00;83.80
420;DHT22;42600;54.408;13.016;2023-03-04T15:29:12;6.10;82.70
420;DHT22;42600;54.408;13.016;2023-03-04T15:31:40;6.00;82.20
420;DHT22;42600;54.408;13.016;2023-03-04T15:34:11;5.70;82.30
420;DHT22;42600;54.408;13.016;2023-03-04T15:36:38;5.60;80.90
420;DHT22;42600;54.408;13.016;2023-03-04T15:39:10;5.40;81.40
420;DHT22;42600;54.408;13.016;2023-03-04T15:41:37;5.30;80.50
420;DHT22;42600;54.408;13.016;2023-03-04T15:44:04;5.10;78.90
420;DHT22;42600;54.408;13.016;2023-03-04T15:46:31;5.20;81.50
420;DHT22;42600;54.408;13.016;2023-03-04T15:48:58;5.20;79.70
420;DHT22;42600;54.408;13.016;2023-03-04T15:51:24;5.40;83.10
420;DHT22;42600;54.408;13.016;2023-03-04T15:53:54;5.30;80.00
420;DHT22;42600;54.408;13.016;2023-03-04T15:56:25;5.10;74.70
420;DHT22;42600;54.408;13.016;2023-03-04T15:58:53;4.70;73.60
420;DHT22;42600;54.408;13.016;2023-03-04T16:01:20;4.40;74.40
420;DHT22;42600;54.408;13.016;2023-03-04T16:03:47;4.30;72.80
420;DHT22;42600;54.408;13.016;2023-03-04T16:06:15;4.20;75.40
420;DHT22;42600;54.408;13.016;2023-03-04T16:08:43;4.40;78.70
420;DHT22;42600;54.408;13.016;2023-03-04T16:11:13;4.40;78.50
420;DHT22;42600;54.408;13.016;2023-03-04T16:13:42;4.50;78.50
420;DHT22;42600;54.408;13.016;2023-03-04T16:16:09;4.30;73.60
420;DHT22;42600;54.408;13.016;2023-03-04T16:18:36;4.50;78.40
420;DHT22;42600;54.408;13.016;2023-03-04T16:21:03;4.10;75.90
420;DHT22;42600;54.408;13.016;2023-03-04T16:23:31;3.90;76.80